createdAt,value
2023-01-28T00:00:55.278Z,1.88
2023-01-28T00:03:22.326Z,1.88
2023-01-28T00:05:49.039Z,1.86
2023-01-28T00:08:15.936Z,1.81
2023-01-28T00:10:46.340Z,1.78
2023-01-28T00:13:14.999Z,1.77
2023-01-28T00:15:41.791Z,1.76
2023-01-28T00:18:08.541Z,1.76
2023-01-28T00:20:35.734Z,1.77
2023-01-28T00:23:02.865Z,1.76
2023-01-28T00:25:29.737Z,1.76
2023-01-28T00:27:56.358Z,1.76
2023-01-28T00:30:23.543Z,1.75
2023-01-28T00:32:50.408Z,1.70
2023-01-28T00:35:17.687Z,1.66
2023-01-28T00:37:47.375Z,1.64
2023-01-28T00:40:14.418Z,1.60
2023-01-28T00:42:41.402Z,1.57
2023-01-28T00:45:08.651Z,1.57
2023-01-28T00:47:35.532Z,1.60
2023-01-28T00:50:02.871Z,1.59
2023-01-28T00:52:30.078Z,1.58
2023-01-28T00:54:57.428Z,1.56
2023-01-28T00:57:24.602Z,1.56
2023-01-28T00:59:52.200Z,1.58
2023-01-28T01:02:19.040Z,1.59
2023-01-28T01:04:55.080Z,1.57
2023-01-28T01:07:41.783Z,1.54
2023-01-28T01:10:11.541Z,1.51
2023-01-28T01:12:42.243Z,1.45
2023-01-28T01:15:10.431Z,1.43
2023-01-28T01:17:39.031Z,1.44
2023-01-28T01:20:09.374Z,1.42
2023-01-28T01:22:40.985Z,1.41
2023-01-28T01:25:13.158Z,1.41
2023-01-28T01:27:40.473Z,1.43
2023-01-28T01:30:08.664Z,1.46
2023-01-28T01:32:36.404Z,1.45
2023-01-28T01:35:06.897Z,1.44
2023-01-28T01:37:34.175Z,1.45
2023-01-28T01:40:05.001Z,1.44
2023-01-28T01:42:35.256Z,1.40
2023-01-28T01:45:08.554Z,1.36
2023-01-28T01:47:45.943Z,1.32
2023-01-28T01:50:43.146Z,1.30
2023-01-28T01:53:16.820Z,1.29
2023-01-28T01:55:47.443Z,1.29
2023-01-28T01:58:18.781Z,1.30
2023-01-28T02:00:46.594Z,1.35
2023-01-28T02:03:15.228Z,1.40
2023-01-28T02:05:42.362Z,1.42
2023-01-28T02:08:21.468Z,1.40
2023-01-28T02:11:02.900Z,1.35
2023-01-28T02:13:35.392Z,1.32
2023-01-28T02:16:03.352Z,1.31
2023-01-28T02:18:32.056Z,1.30
2023-01-28T02:21:25.685Z,1.31
2023-01-28T02:24:30.622Z,1.33
2023-01-28T02:27:26.393Z,1.31
2023-01-28T02:29:53.784Z,1.27
2023-01-28T02:32:51.664Z,1.22
2023-01-28T02:36:03.327Z,1.20
2023-01-28T02:38:34.593Z,1.18
2023-01-28T02:41:07.476Z,1.17
2023-01-28T02:44:02.574Z,1.19
2023-01-28T02:46:47.890Z,1.18
2023-01-28T02:49:30.584Z,1.15
2023-01-28T02:52:10.174Z,1.13
2023-01-28T02:54:53.183Z,1.12
2023-01-28T02:57:41.916Z,1.11
2023-01-28T03:00:16.460Z,1.12
2023-01-28T03:02:50.894Z,1.13
2023-01-28T03:05:22.411Z,1.13
2023-01-28T03:07:57.659Z,1.15
2023-01-28T03:10:26.720Z,1.13
2023-01-28T03:13:15.508Z,1.14
2023-01-28T03:16:06.523Z,1.14
2023-01-28T03:19:08.165Z,1.13
2023-01-28T03:21:59.586Z,1.08
2023-01-28T03:24:49.058Z,1.05
2023-01-28T03:27:47.235Z,1.06
2023-01-28T03:30:48.035Z,1.06
2023-01-28T03:33:37.628Z,1.05
2023-01-28T03:36:25.006Z,1.04
2023-01-28T03:38:55.344Z,1.01
2023-01-28T03:41:26.931Z,0.97
2023-01-28T03:43:54.800Z,0.97
2023-01-28T03:46:21.368Z,0.98
2023-01-28T03:48:51.323Z,0.96
2023-01-28T03:51:18.412Z,0.89
2023-01-28T03:53:45.584Z,0.83
2023-01-28T03:56:18.752Z,0.82
2023-01-28T03:58:57.059Z,0.83
2023-01-28T04:01:24.400Z,0.84
2023-01-28T04:03:54.411Z,0.83
2023-01-28T04:06:26.202Z,0.85
2023-01-28T04:08:54.717Z,0.88
2023-01-28T04:11:25.177Z,0.87
2023-01-28T04:13:55.633Z,0.85
2023-01-28T04:16:25.306Z,0.83
2023-01-28T04:18:52.739Z,0.81
2023-01-28T04:21:19.815Z,0.80
2023-01-28T04:23:46.736Z,0.78
2023-01-28T04:26:14.150Z,0.76
2023-01-28T04:28:41.337Z,0.74
2023-01-28T04:31:08.574Z,0.73
2023-01-28T04:33:38.143Z,0.72
2023-01-28T04:36:05.619Z,0.71
2023-01-28T04:38:35.197Z,0.70
2023-01-28T04:41:02.436Z,0.69
2023-01-28T04:43:29.585Z,0.69
2023-01-28T04:45:56.713Z,0.69
2023-01-28T04:48:24.243Z,0.68
2023-01-28T04:50:59.709Z,0.69
2023-01-28T04:53:26.701Z,0.70
2023-01-28T04:55:56.277Z,0.74
2023-01-28T04:58:25.708Z,0.78
2023-01-28T05:00:57.062Z,0.80
2023-01-28T05:03:24.629Z,0.80
2023-01-28T05:05:54.461Z,0.76
2023-01-28T05:08:21.419Z,0.71
2023-01-28T05:10:51.520Z,0.67
2023-01-28T05:13:18.665Z,0.63
2023-01-28T05:15:51.063Z,0.61
2023-01-28T05:18:20.579Z,0.61
2023-01-28T05:20:47.882Z,0.61
2023-01-28T05:23:15.343Z,0.64
2023-01-28T05:25:42.162Z,0.67
2023-01-28T05:28:09.311Z,0.66
2023-01-28T05:30:37.637Z,0.67
2023-01-28T05:33:04.928Z,0.67
2023-01-28T05:35:36.394Z,0.66
2023-01-28T05:38:07.072Z,0.61
2023-01-28T05:40:33.905Z,0.58
2023-01-28T05:43:00.693Z,0.58
2023-01-28T05:45:28.350Z,0.60
2023-01-28T05:47:55.565Z,0.59
2023-01-28T05:50:22.412Z,0.56
2023-01-28T05:52:49.651Z,0.57
2023-01-28T05:55:17.631Z,0.62
2023-01-28T05:57:45.763Z,0.67
2023-01-28T06:00:15.252Z,0.68
2023-01-28T06:02:43.233Z,0.67
2023-01-28T06:05:13.324Z,0.65
2023-01-28T06:07:40.390Z,0.64
2023-01-28T06:10:07.983Z,0.63
2023-01-28T06:12:34.916Z,0.66
2023-01-28T06:15:01.842Z,0.70
2023-01-28T06:17:29.401Z,0.70
2023-01-28T06:19:56.483Z,0.67
2023-01-28T06:22:26.593Z,0.65
2023-01-28T06:24:53.515Z,0.63
2023-01-28T06:27:21.148Z,0.63
2023-01-28T06:29:48.269Z,0.64
2023-01-28T06:32:18.077Z,0.63
2023-01-28T06:34:45.257Z,0.62
2023-01-28T06:37:15.746Z,0.60
2023-01-28T06:39:43.234Z,0.57
2023-01-28T06:42:10.183Z,0.54
2023-01-28T06:44:36.807Z,0.56
2023-01-28T06:47:04.230Z,0.57
2023-01-28T06:49:33.768Z,0.56
2023-01-28T06:52:03.436Z,0.56
2023-01-28T06:54:32.660Z,0.59
2023-01-28T06:57:02.966Z,0.62
2023-01-28T06:59:30.105Z,0.62
2023-01-28T07:01:57.316Z,0.62
2023-01-28T07:04:24.383Z,0.62
2023-01-28T07:06:51.476Z,0.63
2023-01-28T07:09:18.423Z,0.60
2023-01-28T07:11:46.113Z,0.57
2023-01-28T07:14:15.621Z,0.55
2023-01-28T07:16:42.850Z,0.54
2023-01-28T07:19:10.641Z,0.51
2023-01-28T07:21:40.239Z,0.50
2023-01-28T07:24:07.645Z,0.51
2023-01-28T07:26:34.553Z,0.53
2023-01-28T07:29:01.602Z,0.55
2023-01-28T07:31:28.438Z,0.58
2023-01-28T07:34:02.860Z,0.59
2023-01-28T07:36:37.082Z,0.62
2023-01-28T07:39:04.491Z,0.65
2023-01-28T07:41:31.753Z,0.68
2023-01-28T07:43:58.828Z,0.71
2023-01-28T07:46:25.722Z,0.71
2023-01-28T07:48:52.698Z,0.72
2023-01-28T07:51:19.415Z,0.70
2023-01-28T07:53:46.199Z,0.65
2023-01-28T07:56:23.501Z,0.62
2023-01-28T07:58:50.716Z,0.59
2023-01-28T08:01:18.385Z,0.61
2023-01-28T08:03:45.628Z,0.67
2023-01-28T08:06:12.321Z,0.70
2023-01-28T08:08:41.707Z,0.71
2023-01-28T08:11:11.675Z,0.73
2023-01-28T08:13:38.735Z,0.78
2023-01-28T08:16:06.205Z,0.83
2023-01-28T08:18:33.606Z,0.86
2023-01-28T08:21:00.497Z,0.89
2023-01-28T08:23:30.271Z,0.93
2023-01-28T08:25:59.147Z,0.98
2023-01-28T08:28:26.698Z,1.02
2023-01-28T08:30:54.139Z,1.07
2023-01-28T08:33:22.331Z,1.16
2023-01-28T08:35:49.652Z,1.25
2023-01-28T08:38:17.817Z,1.28
2023-01-28T08:40:44.976Z,1.29
2023-01-28T08:43:12.485Z,1.33
2023-01-28T08:45:42.535Z,1.41
2023-01-28T08:48:14.242Z,1.48
2023-01-28T08:50:41.884Z,1.53
2023-01-28T08:53:12.706Z,1.51
2023-01-28T08:55:40.053Z,1.53
2023-01-28T08:58:12.398Z,1.55
2023-01-28T09:00:40.371Z,1.50
2023-01-28T09:03:07.294Z,1.47
2023-01-28T09:05:38.152Z,1.51
2023-01-28T09:08:12.777Z,1.59
2023-01-28T09:10:41.980Z,1.70
2023-01-28T09:13:14.833Z,1.82
2023-01-28T09:15:42.438Z,1.93
2023-01-28T09:18:09.624Z,1.97
2023-01-28T09:20:38.090Z,1.96
2023-01-28T09:23:05.490Z,1.94
2023-01-28T09:25:32.718Z,1.91
2023-01-28T09:28:00.000Z,1.84
2023-01-28T09:30:27.300Z,1.74
2023-01-28T09:32:55.662Z,1.68
2023-01-28T09:35:22.761Z,1.60
2023-01-28T09:37:49.683Z,1.53
2023-01-28T09:40:20.875Z,1.48
2023-01-28T09:42:58.414Z,1.43
2023-01-28T09:45:43.117Z,1.41
2023-01-28T09:48:16.563Z,1.35
2023-01-28T09:50:48.747Z,1.32
2023-01-28T09:53:31.787Z,1.31
2023-01-28T09:56:03.077Z,1.30
2023-01-28T09:58:30.147Z,1.35
2023-01-28T10:01:05.486Z,1.36
2023-01-28T10:03:45.491Z,1.34
2023-01-28T10:06:22.077Z,1.27
2023-01-28T10:09:07.588Z,1.22
2023-01-28T10:11:43.278Z,1.15
2023-01-28T10:14:21.144Z,1.11
2023-01-28T10:16:58.320Z,1.14
2023-01-28T10:19:33.600Z,1.18
2023-01-28T10:22:03.678Z,1.21
2023-01-28T10:24:38.128Z,1.18
2023-01-28T10:27:21.875Z,1.18
2023-01-28T10:29:50.728Z,1.16
2023-01-28T10:32:29.078Z,1.14
2023-01-28T10:34:59.735Z,1.09
2023-01-28T10:37:27.357Z,1.09
2023-01-28T10:39:58.195Z,1.12
2023-01-28T10:42:31.263Z,1.22
2023-01-28T10:45:07.627Z,1.30
2023-01-28T10:47:44.060Z,1.38
2023-01-28T10:50:18.617Z,1.43
2023-01-28T10:53:00.778Z,1.52
2023-01-28T10:55:35.160Z,1.57
2023-01-28T10:58:05.239Z,1.59
2023-01-28T11:00:36.980Z,1.57
2023-01-28T11:03:04.519Z,1.54
2023-01-28T11:05:31.769Z,1.48
2023-01-28T11:08:15.200Z,1.45
2023-01-28T11:10:42.980Z,1.47
2023-01-28T11:13:21.816Z,1.50
2023-01-28T11:16:06.981Z,1.56
2023-01-28T11:18:40.498Z,1.64
2023-01-28T11:21:18.024Z,1.57
2023-01-28T11:23:56.956Z,1.57
2023-01-28T11:26:29.149Z,1.61
2023-01-28T11:28:56.352Z,1.71
2023-01-28T11:31:24.280Z,1.73
2023-01-28T11:34:02.548Z,1.73
2023-01-28T11:36:34.633Z,1.72
2023-01-28T11:39:07.388Z,1.71
2023-01-28T11:41:37.452Z,1.68
2023-01-28T11:44:25.200Z,1.60
2023-01-28T11:47:04.354Z,1.59
2023-01-28T11:49:55.553Z,1.54
2023-01-28T11:52:55.333Z,1.57
2023-01-28T11:55:23.282Z,1.66
2023-01-28T11:57:50.073Z,1.70
2023-01-28T12:00:52.449Z,1.80
2023-01-28T12:03:41.724Z,1.91
2023-01-28T12:06:20.392Z,1.99
2023-01-28T12:09:06.949Z,2.09
2023-01-28T12:12:14.278Z,2.15
2023-01-28T12:15:18.807Z,2.30
2023-01-28T12:17:55.470Z,2.54
2023-01-28T12:20:35.629Z,2.70
2023-01-28T12:23:14.569Z,2.83
2023-01-28T12:26:02.726Z,2.88
2023-01-28T12:28:52.498Z,2.88
2023-01-28T12:31:31.036Z,2.91
2023-01-28T12:34:32.721Z,3.58
2023-01-28T12:37:09.723Z,5.01
2023-01-28T12:39:54.740Z,6.20
2023-01-28T12:42:48.098Z,7.29
2023-01-28T12:45:21.888Z,8.28
2023-01-28T12:47:54.409Z,8.75
2023-01-28T12:50:36.590Z,9.04
2023-01-28T12:53:26.980Z,9.51
2023-01-28T12:55:59.702Z,10.22
2023-01-28T12:58:39.412Z,11.15
2023-01-28T13:01:11.499Z,12.06
2023-01-28T13:03:49.725Z,12.45
2023-01-28T13:06:24.995Z,12.40
2023-01-28T13:09:00.279Z,11.75
2023-01-28T13:11:34.474Z,11.14
2023-01-28T13:14:02.814Z,10.85
2023-01-28T13:16:37.322Z,10.68
2023-01-28T13:19:25.397Z,11.05
2023-01-28T13:21:52.797Z,11.58
2023-01-28T13:24:22.202Z,11.86
2023-01-28T13:26:55.264Z,11.38
2023-01-28T13:29:24.532Z,11.26
2023-01-28T13:31:56.052Z,11.79
2023-01-28T13:34:44.007Z,12.43
2023-01-28T13:37:20.289Z,12.90
2023-01-28T13:39:51.524Z,13.24
2023-01-28T13:42:22.906Z,13.65
2023-01-28T13:44:49.677Z,13.99
2023-01-28T13:47:33.397Z,14.13
2023-01-28T13:50:04.631Z,14.04
2023-01-28T13:52:36.898Z,13.55
2023-01-28T13:55:11.412Z,12.79
2023-01-28T13:57:54.022Z,11.72
2023-01-28T14:00:41.678Z,10.43
2023-01-28T14:03:33.679Z,9.05
2023-01-28T14:06:20.351Z,8.12
2023-01-28T14:09:08.429Z,7.54
2023-01-28T14:11:53.671Z,6.88
2023-01-28T14:14:26.302Z,7.80
2023-01-28T14:17:00.683Z,9.05
2023-01-28T14:19:34.328Z,10.25
2023-01-28T14:22:07.527Z,11.28
2023-01-28T14:24:34.376Z,11.63
2023-01-28T14:27:29.247Z,11.65
2023-01-28T14:30:08.894Z,10.57
2023-01-28T14:32:35.718Z,9.30
2023-01-28T14:35:09.042Z,8.91
2023-01-28T14:37:36.264Z,9.17
2023-01-28T14:40:06.666Z,9.62
2023-01-28T14:42:42.102Z,10.02
2023-01-28T14:45:22.653Z,10.38
2023-01-28T14:48:13.662Z,10.27
2023-01-28T14:51:02.995Z,10.51
2023-01-28T14:54:07.772Z,11.00
2023-01-28T14:56:55.732Z,11.72
2023-01-28T14:59:27.646Z,12.30
2023-01-28T15:01:59.873Z,12.75
2023-01-28T15:04:32.968Z,13.05
2023-01-28T15:07:18.413Z,12.93
2023-01-28T15:09:45.489Z,12.78
2023-01-28T15:12:13.793Z,12.65
2023-01-28T15:14:41.248Z,12.48
2023-01-28T15:17:21.857Z,12.33
2023-01-28T15:19:48.701Z,12.10
2023-01-28T15:22:16.081Z,11.90
2023-01-28T15:24:46.176Z,11.51
2023-01-28T15:27:32.919Z,11.16
2023-01-28T15:30:00.011Z,10.92
2023-01-28T15:32:29.992Z,10.72
2023-01-28T15:34:59.701Z,10.47
2023-01-28T15:37:26.709Z,9.93
2023-01-28T15:40:06.158Z,9.48
2023-01-28T15:42:34.032Z,9.16
2023-01-28T15:45:01.470Z,8.64
2023-01-28T15:47:33.808Z,7.93
2023-01-28T15:50:03.974Z,7.18
2023-01-28T15:52:39.667Z,6.25
2023-01-28T15:55:07.894Z,5.30
2023-01-28T15:57:35.295Z,4.59
2023-01-28T16:00:04.957Z,3.96
2023-01-28T16:02:32.402Z,3.47
2023-01-28T16:05:03.616Z,3.07
2023-01-28T16:07:34.095Z,2.67
2023-01-28T16:10:03.878Z,2.28
2023-01-28T16:12:31.512Z,1.99
2023-01-28T16:15:05.409Z,1.76
2023-01-28T16:17:40.529Z,1.49
2023-01-28T16:20:19.411Z,1.30
2023-01-28T16:22:46.393Z,1.14
2023-01-28T16:25:21.994Z,0.99
2023-01-28T16:27:49.659Z,0.83
2023-01-28T16:30:17.395Z,0.68
2023-01-28T16:32:44.523Z,0.55
2023-01-28T16:35:47.163Z,0.44
2023-01-28T16:38:17.248Z,0.32
2023-01-28T16:40:45.718Z,0.24
2023-01-28T16:43:13.928Z,0.16
2023-01-28T16:45:42.130Z,0.09
2023-01-28T16:48:09.268Z,0.01
2023-01-28T16:50:39.527Z,-0.09
2023-01-28T16:53:11.989Z,-0.17
2023-01-28T16:55:38.565Z,-0.24
2023-01-28T16:58:05.549Z,-0.29
2023-01-28T17:00:35.654Z,-0.30
2023-01-28T17:03:03.672Z,-0.30
2023-01-28T17:05:31.226Z,-0.33
2023-01-28T17:07:59.352Z,-0.37
2023-01-28T17:10:26.736Z,-0.41
2023-01-28T17:12:54.543Z,-0.47
2023-01-28T17:15:21.562Z,-0.54
2023-01-28T17:17:50.570Z,-0.62
2023-01-28T17:20:18.057Z,-0.69
2023-01-28T17:22:49.026Z,-0.75
2023-01-28T17:25:17.045Z,-0.81
2023-01-28T17:27:44.126Z,-0.88
2023-01-28T17:30:11.674Z,-0.95
2023-01-28T17:32:38.759Z,-1.01
2023-01-28T17:35:06.439Z,-1.04
2023-01-28T17:37:33.692Z,-1.06
2023-01-28T17:40:00.696Z,-1.07
2023-01-28T17:42:28.462Z,-1.08
2023-01-28T17:44:55.685Z,-1.09
2023-01-28T17:47:22.689Z,-1.10
2023-01-28T17:49:49.639Z,-1.11
2023-01-28T17:52:17.038Z,-1.13
2023-01-28T17:54:44.392Z,-1.16
2023-01-28T17:57:11.786Z,-1.20
2023-01-28T17:59:41.114Z,-1.25
2023-01-28T18:02:11.544Z,-1.29
2023-01-28T18:04:42.474Z,-1.34
2023-01-28T18:07:12.892Z,-1.36
2023-01-28T18:09:46.767Z,-1.38
2023-01-28T18:12:17.764Z,-1.41
2023-01-28T18:14:47.779Z,-1.44
2023-01-28T18:17:15.318Z,-1.44
2023-01-28T18:19:42.861Z,-1.47
2023-01-28T18:22:10.193Z,-1.49
2023-01-28T18:24:46.145Z,-1.52
2023-01-28T18:27:13.360Z,-1.55
2023-01-28T18:29:40.540Z,-1.57
2023-01-28T18:32:07.583Z,-1.58
2023-01-28T18:34:37.430Z,-1.61
2023-01-28T18:37:06.791Z,-1.62
2023-01-28T18:39:33.995Z,-1.65
2023-01-28T18:42:01.216Z,-1.68
2023-01-28T18:44:30.205Z,-1.70
2023-01-28T18:46:57.083Z,-1.73
2023-01-28T18:49:24.144Z,-1.73
2023-01-28T18:51:54.052Z,-1.74
2023-01-28T18:54:21.592Z,-1.74
2023-01-28T18:56:49.318Z,-1.72
2023-01-28T18:59:16.749Z,-1.71
2023-01-28T19:01:47.640Z,-1.69
2023-01-28T19:04:15.676Z,-1.68
2023-01-28T19:06:43.170Z,-1.66
2023-01-28T19:09:11.851Z,-1.65
2023-01-28T19:11:40.793Z,-1.64
2023-01-28T19:14:14.088Z,-1.63
2023-01-28T19:16:41.307Z,-1.61
2023-01-28T19:19:08.377Z,-1.62
2023-01-28T19:21:35.769Z,-1.62
2023-01-28T19:24:07.040Z,-1.61
2023-01-28T19:26:34.313Z,-1.59
2023-01-28T19:29:01.847Z,-1.57
2023-01-28T19:31:29.119Z,-1.56
2023-01-28T19:34:00.323Z,-1.54
2023-01-28T19:36:29.853Z,-1.54
2023-01-28T19:39:01.042Z,-1.54
2023-01-28T19:41:28.946Z,-1.54
2023-01-28T19:43:56.919Z,-1.55
2023-01-28T19:46:24.927Z,-1.56
2023-01-28T19:48:52.166Z,-1.57
2023-01-28T19:51:20.333Z,-1.57
2023-01-28T19:53:50.589Z,-1.57
2023-01-28T19:56:18.583Z,-1.57
2023-01-28T19:58:46.359Z,-1.56
2023-01-28T20:01:16.117Z,-1.55
2023-01-28T20:03:44.204Z,-1.55
2023-01-28T20:06:16.793Z,-1.55
2023-01-28T20:08:44.625Z,-1.55
2023-01-28T20:11:16.494Z,-1.55
2023-01-28T20:13:45.075Z,-1.54
2023-01-28T20:16:21.250Z,-1.57
2023-01-28T20:18:53.209Z,-1.58
2023-01-28T20:21:20.637Z,-1.59
2023-01-28T20:23:49.100Z,-1.58
2023-01-28T20:26:17.180Z,-1.59
2023-01-28T20:28:44.192Z,-1.58
2023-01-28T20:31:12.922Z,-1.58
2023-01-28T20:33:40.096Z,-1.58
2023-01-28T20:36:09.526Z,-1.57
2023-01-28T20:38:42.054Z,-1.56
2023-01-28T20:41:11.241Z,-1.55
2023-01-28T20:43:40.495Z,-1.55
2023-01-28T20:46:11.488Z,-1.55
2023-01-28T20:48:38.764Z,-1.56
2023-01-28T20:51:12.131Z,-1.57
2023-01-28T20:53:39.827Z,-1.58
2023-01-28T20:56:07.266Z,-1.61
2023-01-28T20:58:34.298Z,-1.65
2023-01-28T21:01:01.288Z,-1.69
2023-01-28T21:03:28.292Z,-1.72
2023-01-28T21:05:55.315Z,-1.76
2023-01-28T21:08:22.200Z,-1.79
2023-01-28T21:10:49.539Z,-1.82
2023-01-28T21:13:17.135Z,-1.85
2023-01-28T21:15:55.204Z,-1.86
2023-01-28T21:18:22.727Z,-1.88
2023-01-28T21:20:50.744Z,-1.91
2023-01-28T21:23:17.561Z,-1.93
2023-01-28T21:25:51.366Z,-1.96
2023-01-28T21:28:19.695Z,-1.99
2023-01-28T21:30:47.534Z,-2.00
2023-01-28T21:33:14.544Z,-2.03
2023-01-28T21:35:43.684Z,-2.06
2023-01-28T21:38:11.145Z,-2.06
2023-01-28T21:40:38.366Z,-2.06
2023-01-28T21:43:05.463Z,-2.09
2023-01-28T21:45:32.797Z,-2.09
2023-01-28T21:47:59.585Z,-2.10
2023-01-28T21:50:26.928Z,-2.10
2023-01-28T21:52:56.517Z,-2.11
2023-01-28T21:55:23.354Z,-2.12
2023-01-28T21:58:10.007Z,-2.13
2023-01-28T22:00:36.593Z,-2.12
2023-01-28T22:03:03.500Z,-2.10
2023-01-28T22:05:30.558Z,-2.06
2023-01-28T22:07:57.232Z,-1.99
2023-01-28T22:10:24.717Z,-1.92
2023-01-28T22:12:51.668Z,-1.85
2023-01-28T22:15:18.595Z,-1.79
2023-01-28T22:17:45.411Z,-1.74
2023-01-28T22:20:12.551Z,-1.69
2023-01-28T22:22:39.727Z,-1.59
2023-01-28T22:25:06.568Z,-1.49
2023-01-28T22:27:33.507Z,-1.39
2023-01-28T22:30:00.455Z,-1.33
2023-01-28T22:32:27.281Z,-1.31
2023-01-28T22:34:54.391Z,-1.29
2023-01-28T22:37:21.387Z,-1.24
2023-01-28T22:39:47.888Z,-1.18
2023-01-28T22:42:14.877Z,-1.13
2023-01-28T22:44:42.064Z,-1.07
2023-01-28T22:47:08.716Z,-1.00
2023-01-28T22:49:35.766Z,-0.96
2023-01-28T22:52:02.591Z,-0.93
2023-01-28T22:54:29.424Z,-0.91
2023-01-28T22:56:56.101Z,-0.91
2023-01-28T22:59:22.849Z,-0.90
2023-01-28T23:01:49.671Z,-0.90
2023-01-28T23:04:16.633Z,-0.89
2023-01-28T23:06:44.325Z,-0.89
2023-01-28T23:09:11.165Z,-0.87
2023-01-28T23:11:37.808Z,-0.85
2023-01-28T23:14:23.417Z,-0.83
2023-01-28T23:17:09.158Z,-0.81
2023-01-28T23:19:55.034Z,-0.79
2023-01-28T23:22:43.270Z,-0.80
2023-01-28T23:25:11.108Z,-0.79
2023-01-28T23:27:38.025Z,-0.78
2023-01-28T23:30:09.973Z,-0.77
2023-01-28T23:32:40.367Z,-0.75
2023-01-28T23:35:11.048Z,-0.72
2023-01-28T23:37:38.148Z,-0.69
2023-01-28T23:40:06.165Z,-0.67
2023-01-28T23:42:33.150Z,-0.65
2023-01-28T23:45:00.716Z,-0.63
2023-01-28T23:47:27.410Z,-0.63
2023-01-28T23:49:54.283Z,-0.61
2023-01-28T23:52:21.367Z,-0.58
2023-01-28T23:54:48.215Z,-0.56
2023-01-28T23:57:15.390Z,-0.57
2023-01-28T23:59:42.630Z,-0.54
